createdAt,value
2019-05-06T00:02:43.575Z,16.33
2019-05-06T00:06:52.008Z,16.32
2019-05-06T00:11:00.259Z,16.28
2019-05-06T00:15:08.160Z,16.32
2019-05-06T00:19:16.082Z,16.32
2019-05-06T00:23:39.002Z,16.40
2019-05-06T00:28:06.152Z,16.33
2019-05-06T00:32:15.044Z,16.33
2019-05-06T00:36:23.753Z,16.28
2019-05-06T00:40:35.659Z,16.27
2019-05-06T00:44:44.302Z,16.25
2019-05-06T00:48:54.193Z,16.35
2019-05-06T00:53:04.625Z,16.25
2019-05-06T00:57:13.967Z,16.25
2019-05-06T01:01:27.007Z,16.20
2019-05-06T01:05:33.755Z,16.16
2019-05-06T01:09:43.827Z,16.12
2019-05-06T01:14:06.046Z,16.15
2019-05-06T01:18:14.260Z,16.20
2019-05-06T01:22:24.500Z,16.14
2019-05-06T01:26:33.726Z,16.14
2019-05-06T01:30:44.374Z,16.10
2019-05-06T01:34:53.673Z,16.10
2019-05-06T01:39:28.196Z,16.18
2019-05-06T01:43:36.925Z,16.30
2019-05-06T01:47:44.542Z,16.32
2019-05-06T01:51:54.614Z,16.41
2019-05-06T01:56:03.653Z,16.41
2019-05-06T02:00:14.064Z,16.44
2019-05-06T02:04:24.310Z,16.40
2019-05-06T02:08:33.702Z,16.55
2019-05-06T02:12:41.330Z,16.54
2019-05-06T02:16:49.422Z,16.61
2019-05-06T02:21:02.409Z,16.79
2019-05-06T02:25:14.299Z,16.74
2019-05-06T02:29:24.813Z,16.74
2019-05-06T02:33:37.956Z,16.67
2019-05-06T02:37:46.723Z,16.77
2019-05-06T02:41:55.733Z,16.76
2019-05-06T02:46:04.624Z,16.74
2019-05-06T02:50:15.319Z,16.69
2019-05-06T02:54:23.629Z,16.55
2019-05-06T02:58:33.022Z,16.56
2019-05-06T03:02:44.914Z,16.65
2019-05-06T03:06:53.278Z,16.68
2019-05-06T03:11:03.630Z,16.89
2019-05-06T03:15:16.227Z,16.80
2019-05-06T03:19:24.361Z,16.70
2019-05-06T03:23:35.469Z,16.73
2019-05-06T03:27:46.977Z,16.76
2019-05-06T03:31:56.352Z,16.69
2019-05-06T03:36:15.436Z,16.73
2019-05-06T03:40:14.573Z,16.76
2019-05-06T03:44:23.937Z,16.80
2019-05-06T03:48:35.358Z,16.72
2019-05-06T03:52:45.076Z,16.74
2019-05-06T03:56:55.601Z,16.78
2019-05-06T04:01:03.958Z,16.62
2019-05-06T04:05:13.295Z,16.61
2019-05-06T04:09:24.078Z,16.55
2019-05-06T04:13:33.172Z,16.62
2019-05-06T04:18:03.638Z,16.67
2019-05-06T04:22:48.076Z,16.69
2019-05-06T04:27:06.502Z,16.74
2019-05-06T04:31:14.925Z,16.85
2019-05-06T04:35:23.193Z,16.92
2019-05-06T04:39:33.002Z,17.15
2019-05-06T04:43:43.840Z,17.35
2019-05-06T04:47:53.506Z,17.11
2019-05-06T04:52:03.663Z,17.23
2019-05-06T04:56:14.129Z,17.33
2019-05-06T05:00:23.247Z,17.32
2019-05-06T05:04:32.785Z,17.45
2019-05-06T05:08:42.573Z,17.59
2019-05-06T05:13:03.370Z,17.79
2019-05-06T05:17:25.305Z,17.77
2019-05-06T05:21:32.983Z,17.77
2019-05-06T05:25:42.625Z,17.88
2019-05-06T05:29:52.227Z,18.11
2019-05-06T05:34:02.112Z,18.11
2019-05-06T05:38:09.883Z,18.20
2019-05-06T05:42:27.525Z,18.16
2019-05-06T05:46:35.427Z,18.10
2019-05-06T05:50:45.165Z,18.10
2019-05-06T05:54:55.582Z,18.16
2019-05-06T05:59:03.301Z,19.04
2019-05-06T06:03:12.928Z,19.82
2019-05-06T06:07:22.918Z,20.38
2019-05-06T06:12:08.245Z,20.65
2019-05-06T06:16:44.749Z,21.14
2019-05-06T06:21:17.334Z,21.15
2019-05-06T06:25:14.189Z,21.40
2019-05-06T06:29:22.791Z,21.89
2019-05-06T06:33:32.965Z,22.18
2019-05-06T06:38:02.629Z,22.51
2019-05-06T06:42:09.886Z,22.52
2019-05-06T06:46:18.636Z,22.43
2019-05-06T06:50:26.330Z,22.92
2019-05-06T06:54:34.561Z,23.10
2019-05-06T06:59:02.544Z,22.99
2019-05-06T07:03:32.710Z,23.45
2019-05-06T07:07:47.144Z,23.94
2019-05-06T07:11:52.580Z,24.61
2019-05-06T07:16:02.783Z,24.97
2019-05-06T07:20:13.234Z,23.80
2019-05-06T07:24:22.852Z,24.05
2019-05-06T07:28:32.673Z,24.07
2019-05-06T07:32:42.381Z,24.52
2019-05-06T07:36:49.772Z,24.79
2019-05-06T07:41:14.892Z,25.69
2019-05-06T07:45:42.240Z,25.69
2019-05-06T07:49:53.144Z,24.86
2019-05-06T07:54:02.839Z,24.62
2019-05-06T07:58:13.571Z,24.82
2019-05-06T08:02:22.848Z,25.24
2019-05-06T08:06:32.169Z,23.95
2019-05-06T08:10:42.251Z,24.87
2019-05-06T08:14:49.743Z,24.67
2019-05-06T08:18:59.291Z,23.95
2019-05-06T08:23:27.298Z,24.09
2019-05-06T08:27:35.601Z,23.73
2019-05-06T08:31:43.821Z,23.10
2019-05-06T08:35:54.540Z,23.69
2019-05-06T08:40:03.355Z,24.16
2019-05-06T08:44:12.747Z,23.65
2019-05-06T08:48:21.998Z,22.68
2019-05-06T08:52:43.899Z,23.74
2019-05-06T08:56:52.414Z,23.87
2019-05-06T09:01:06.970Z,23.19
2019-05-06T09:05:15.453Z,23.96
2019-05-06T09:09:24.717Z,24.33
2019-05-06T09:13:32.844Z,23.35
2019-05-06T09:17:42.061Z,22.37
2019-05-06T09:21:50.119Z,21.65
2019-05-06T09:25:57.907Z,22.20
2019-05-06T09:30:14.220Z,21.84
2019-05-06T09:34:37.276Z,21.54
2019-05-06T09:38:44.898Z,21.32
2019-05-06T09:42:53.220Z,21.44
2019-05-06T09:47:02.437Z,21.93
2019-05-06T09:51:13.098Z,21.37
2019-05-06T09:55:34.021Z,23.00
2019-05-06T09:59:42.159Z,24.25
2019-05-06T10:03:49.982Z,22.61
2019-05-06T10:07:57.912Z,23.04
2019-05-06T10:12:05.723Z,22.18
2019-05-06T10:16:13.600Z,21.59
2019-05-06T10:20:22.348Z,21.65
2019-05-06T10:24:32.259Z,21.36
2019-05-06T10:28:52.378Z,21.50
2019-05-06T10:33:02.165Z,21.91
2019-05-06T10:37:44.002Z,22.14
2019-05-06T10:42:13.237Z,21.82
2019-05-06T10:46:22.517Z,23.03
2019-05-06T10:50:35.103Z,26.53
2019-05-06T10:54:42.794Z,26.51
2019-05-06T10:58:52.778Z,28.26
2019-05-06T11:03:19.406Z,28.52
2019-05-06T11:07:31.278Z,25.30
2019-05-06T11:11:38.685Z,25.30
2019-05-06T11:15:46.942Z,24.38
2019-05-06T11:19:54.797Z,26.04
2019-05-06T11:24:05.984Z,24.71
2019-05-06T11:28:43.816Z,23.17
2019-05-06T11:33:04.858Z,22.50
2019-05-06T11:37:27.989Z,23.06
2019-05-06T11:41:36.300Z,22.20
2019-05-06T11:45:46.559Z,22.34
2019-05-06T11:49:56.686Z,23.61
2019-05-06T11:54:16.497Z,24.66
2019-05-06T11:58:32.680Z,24.59
2019-05-06T12:02:44.253Z,25.69
2019-05-06T12:06:52.614Z,23.81
2019-05-06T12:10:59.895Z,22.52
2019-05-06T12:15:08.488Z,22.61
2019-05-06T12:19:16.249Z,22.99
2019-05-06T12:23:24.214Z,25.40
2019-05-06T12:27:47.528Z,27.25
2019-05-06T12:32:14.319Z,26.95
2019-05-06T12:36:22.924Z,26.95
2019-05-06T12:40:32.438Z,26.63
2019-05-06T12:44:41.438Z,26.31
2019-05-06T12:48:52.151Z,24.84
2019-05-06T12:53:01.111Z,23.93
2019-05-06T12:57:12.617Z,23.24
2019-05-06T13:01:20.991Z,23.15
2019-05-06T13:05:28.917Z,22.47
2019-05-06T13:09:36.744Z,21.90
2019-05-06T13:13:56.596Z,21.54
2019-05-06T13:17:55.179Z,21.56
2019-05-06T13:22:03.961Z,21.36
2019-05-06T13:26:13.201Z,21.00
2019-05-06T13:30:22.827Z,20.92
2019-05-06T13:34:33.324Z,21.17
2019-05-06T13:38:42.639Z,21.40
2019-05-06T13:43:08.264Z,21.44
2019-05-06T13:47:25.842Z,21.75
2019-05-06T13:51:35.154Z,22.66
2019-05-06T13:55:42.996Z,22.64
2019-05-06T13:59:53.260Z,22.58
2019-05-06T14:04:03.752Z,22.36
2019-05-06T14:08:13.042Z,21.60
2019-05-06T14:12:22.095Z,21.49
2019-05-06T14:16:33.294Z,21.30
2019-05-06T14:20:42.769Z,21.71
2019-05-06T14:25:09.124Z,21.44
2019-05-06T14:29:23.506Z,21.29
2019-05-06T14:33:32.282Z,21.22
2019-05-06T14:37:42.171Z,21.01
2019-05-06T14:41:53.434Z,21.22
2019-05-06T14:46:01.737Z,21.24
2019-05-06T14:50:14.191Z,21.34
2019-05-06T14:54:21.720Z,21.37
2019-05-06T14:58:29.073Z,20.96
2019-05-06T15:02:37.399Z,21.12
2019-05-06T15:06:45.198Z,21.45
2019-05-06T15:10:53.745Z,21.44
2019-05-06T15:15:03.845Z,21.38
2019-05-06T15:19:12.886Z,21.33
2019-05-06T15:23:22.430Z,21.25
2019-05-06T15:27:30.014Z,21.09
2019-05-06T15:31:57.189Z,21.12
2019-05-06T15:36:12.896Z,21.10
2019-05-06T15:40:31.886Z,20.81
2019-05-06T15:44:35.260Z,20.62
2019-05-06T15:48:42.079Z,20.40
2019-05-06T15:52:53.621Z,20.28
2019-05-06T15:57:00.614Z,20.20
2019-05-06T16:01:08.516Z,20.02
2019-05-06T16:05:20.097Z,19.77
2019-05-06T16:09:26.096Z,19.74
2019-05-06T16:13:34.097Z,19.73
2019-05-06T16:17:42.689Z,19.60
2019-05-06T16:21:52.352Z,19.41
2019-05-06T16:26:02.814Z,19.32
2019-05-06T16:30:13.128Z,19.29
2019-05-06T16:34:22.760Z,19.24
2019-05-06T16:38:32.349Z,19.15
2019-05-06T16:42:45.345Z,19.16
2019-05-06T16:46:52.141Z,19.34
2019-05-06T16:50:59.987Z,18.85
2019-05-06T16:55:11.607Z,17.74
2019-05-06T16:59:19.447Z,16.80
2019-05-06T17:03:42.840Z,16.31
2019-05-06T17:07:52.591Z,16.11
2019-05-06T17:12:04.294Z,15.90
2019-05-06T17:16:10.487Z,15.84
2019-05-06T17:20:19.069Z,15.68
2019-05-06T17:24:26.821Z,15.51
2019-05-06T17:28:44.254Z,14.96
2019-05-06T17:32:55.358Z,14.71
2019-05-06T17:37:13.181Z,14.72
2019-05-06T17:41:23.728Z,14.71
2019-05-06T17:46:01.082Z,14.77
2019-05-06T17:49:59.656Z,14.64
2019-05-06T17:54:08.449Z,14.64
2019-05-06T17:58:16.530Z,14.27
2019-05-06T18:02:25.516Z,14.41
2019-05-06T18:06:33.535Z,13.99
2019-05-06T18:10:42.673Z,14.22
2019-05-06T18:14:53.381Z,13.87
2019-05-06T18:19:03.135Z,14.03
2019-05-06T18:23:12.890Z,14.13
2019-05-06T18:27:22.623Z,14.28
2019-05-06T18:31:30.389Z,14.31
2019-05-06T18:35:38.365Z,14.35
2019-05-06T18:39:46.117Z,14.34
2019-05-06T18:43:53.789Z,14.45
2019-05-06T18:48:02.781Z,14.27
2019-05-06T18:52:12.980Z,14.27
2019-05-06T18:56:19.738Z,14.21
2019-05-06T19:00:28.228Z,14.41
2019-05-06T19:04:42.195Z,14.53
2019-05-06T19:08:56.231Z,14.61
2019-05-06T19:13:03.715Z,14.56
2019-05-06T19:17:13.174Z,14.33
2019-05-06T19:21:24.233Z,14.13
2019-05-06T19:25:33.973Z,14.19
2019-05-06T19:29:38.923Z,14.24
2019-05-06T19:33:46.393Z,14.28
2019-05-06T19:37:54.166Z,14.36
2019-05-06T19:42:04.704Z,14.29
2019-05-06T19:46:12.084Z,13.86
2019-05-06T19:50:23.549Z,13.62
2019-05-06T19:54:29.536Z,13.40
2019-05-06T19:58:37.379Z,13.47
2019-05-06T20:02:44.925Z,13.44
2019-05-06T20:07:02.624Z,13.46
2019-05-06T20:11:25.534Z,13.41
2019-05-06T20:15:37.540Z,13.41
2019-05-06T20:19:45.425Z,13.34
2019-05-06T20:23:53.318Z,13.01
2019-05-06T20:28:02.369Z,13.14
2019-05-06T20:32:12.149Z,13.08
2019-05-06T20:36:22.394Z,12.85
2019-05-06T20:40:32.438Z,12.86
2019-05-06T20:44:39.142Z,12.71
2019-05-06T20:48:47.562Z,12.75
2019-05-06T20:52:55.778Z,12.61
2019-05-06T20:57:03.691Z,12.73
2019-05-06T21:01:11.336Z,12.73
2019-05-06T21:05:19.205Z,12.76
2019-05-06T21:09:26.937Z,12.85
2019-05-06T21:13:35.753Z,12.94
2019-05-06T21:17:44.222Z,13.01
2019-05-06T21:21:52.721Z,13.14
2019-05-06T21:26:03.204Z,13.24
2019-05-06T21:30:13.080Z,13.14
2019-05-06T21:34:22.324Z,13.13
2019-05-06T21:38:30.591Z,13.41
2019-05-06T21:42:38.389Z,13.36
2019-05-06T21:46:46.305Z,13.39
2019-05-06T21:50:54.369Z,13.50
2019-05-06T21:55:02.626Z,13.48
2019-05-06T21:59:12.945Z,13.58
2019-05-06T22:03:22.802Z,13.62
2019-05-06T22:07:30.495Z,13.69
2019-05-06T22:11:38.511Z,13.52
2019-05-06T22:15:46.909Z,13.50
2019-05-06T22:19:55.159Z,13.45
2019-05-06T22:24:04.793Z,13.24
2019-05-06T22:28:12.609Z,13.21
2019-05-06T22:32:20.084Z,13.03
2019-05-06T22:36:27.542Z,12.98
2019-05-06T22:40:35.635Z,12.86
2019-05-06T22:44:44.883Z,12.84
2019-05-06T22:48:54.559Z,12.93
2019-05-06T22:53:02.380Z,12.92
2019-05-06T22:57:12.031Z,12.80
2019-05-06T23:01:47.992Z,12.87
2019-05-06T23:05:56.039Z,12.99
2019-05-06T23:10:04.934Z,12.86
2019-05-06T23:14:27.627Z,12.77
2019-05-06T23:18:24.400Z,12.74
2019-05-06T23:22:32.536Z,12.78
2019-05-06T23:26:40.261Z,12.85
2019-05-06T23:30:48.583Z,12.96
2019-05-06T23:34:56.373Z,12.89
2019-05-06T23:39:58.161Z,12.87
2019-05-06T23:44:45.964Z,12.88
2019-05-06T23:49:26.792Z,12.77
2019-05-06T23:54:12.609Z,12.67
2019-05-06T23:58:18.253Z,12.61
